createdAt,value
2017-10-01T00:01:07.378Z,22.07
2017-10-01T00:03:34.794Z,22.10
2017-10-01T00:06:02.191Z,22.67
2017-10-01T00:08:29.589Z,21.87
2017-10-01T00:10:57.034Z,22.10
2017-10-01T00:13:24.426Z,22.10
2017-10-01T00:15:51.826Z,23.33
2017-10-01T00:18:19.223Z,22.67
2017-10-01T00:20:46.630Z,24.63
2017-10-01T00:23:14.038Z,22.13
2017-10-01T00:25:41.431Z,24.00
2017-10-01T00:28:08.835Z,22.10
2017-10-01T00:30:36.233Z,21.07
2017-10-01T00:33:03.634Z,23.60
2017-10-01T00:35:31.032Z,23.30
2017-10-01T00:37:58.460Z,22.73
2017-10-01T00:40:26.076Z,23.27
2017-10-01T00:42:53.480Z,21.07
2017-10-01T00:45:20.895Z,23.23
2017-10-01T00:47:48.299Z,23.10
2017-10-01T00:50:15.708Z,22.07
2017-10-01T00:52:43.122Z,24.67
2017-10-01T00:55:10.522Z,24.10
2017-10-01T00:57:37.915Z,23.43
2017-10-01T01:00:05.347Z,23.30
2017-10-01T01:02:32.743Z,22.37
2017-10-01T01:05:00.143Z,23.20
2017-10-01T01:07:27.559Z,24.10
2017-10-01T01:09:54.959Z,24.30
2017-10-01T01:12:22.351Z,25.60
2017-10-01T01:14:49.767Z,25.50
2017-10-01T01:17:17.174Z,22.90
2017-10-01T01:19:44.563Z,21.47
2017-10-01T01:22:11.986Z,22.10
2017-10-01T01:24:39.387Z,23.13
2017-10-01T01:27:06.788Z,21.30
2017-10-01T01:29:34.202Z,21.43
2017-10-01T01:32:01.599Z,22.50
2017-10-01T01:34:28.994Z,21.37
2017-10-01T01:36:56.412Z,21.93
2017-10-01T01:39:23.808Z,21.47
2017-10-01T01:41:51.208Z,22.30
2017-10-01T01:44:18.623Z,21.30
2017-10-01T01:46:46.020Z,20.40
2017-10-01T01:49:13.419Z,20.60
2017-10-01T01:51:40.830Z,20.70
2017-10-01T01:54:08.222Z,21.67
2017-10-01T01:56:35.622Z,23.07
2017-10-01T01:59:03.038Z,22.70
2017-10-01T02:01:30.448Z,22.83
2017-10-01T02:03:57.890Z,22.77
2017-10-01T02:06:25.303Z,22.63
2017-10-01T02:08:52.709Z,22.43
2017-10-01T02:11:20.107Z,20.97
2017-10-01T02:13:47.519Z,21.60
2017-10-01T02:16:14.938Z,21.80
2017-10-01T02:18:42.343Z,21.90
2017-10-01T02:21:09.755Z,21.00
2017-10-01T02:23:37.158Z,21.20
2017-10-01T02:26:04.559Z,19.93
2017-10-01T02:28:31.971Z,21.80
2017-10-01T02:30:59.372Z,21.57
2017-10-01T02:33:26.770Z,22.00
2017-10-01T02:35:54.196Z,21.70
2017-10-01T02:38:21.594Z,22.00
2017-10-01T02:40:48.990Z,23.60
2017-10-01T02:43:16.407Z,21.73
2017-10-01T02:45:43.809Z,21.57
2017-10-01T02:48:11.207Z,20.17
2017-10-01T02:50:38.627Z,19.97
2017-10-01T02:53:06.031Z,19.40
2017-10-01T02:55:33.427Z,19.20
2017-10-01T02:58:00.850Z,20.60
2017-10-01T03:00:28.248Z,21.40
2017-10-01T03:02:55.650Z,19.40
2017-10-01T03:05:23.064Z,20.57
2017-10-01T03:07:50.469Z,20.63
2017-10-01T03:10:17.863Z,20.20
2017-10-01T03:12:45.279Z,20.67
2017-10-01T03:15:12.689Z,20.63
2017-10-01T03:17:40.076Z,20.90
2017-10-01T03:20:07.491Z,22.27
2017-10-01T03:22:34.891Z,20.93
2017-10-01T03:25:02.298Z,22.33
2017-10-01T03:27:29.715Z,21.47
2017-10-01T03:29:57.119Z,21.27
2017-10-01T03:32:24.528Z,21.83
2017-10-01T03:34:51.951Z,20.57
2017-10-01T03:37:19.377Z,21.30
2017-10-01T03:39:46.804Z,22.20
2017-10-01T03:42:14.219Z,23.77
2017-10-01T03:44:41.618Z,21.87
2017-10-01T03:47:09.055Z,21.70
2017-10-01T03:49:36.464Z,21.23
2017-10-01T03:52:03.862Z,21.90
2017-10-01T03:54:31.261Z,20.93
2017-10-01T03:56:58.678Z,21.90
2017-10-01T03:59:26.079Z,21.80
2017-10-01T04:01:53.484Z,23.37
2017-10-01T04:04:22.001Z,21.87
2017-10-01T04:06:49.394Z,19.93
2017-10-01T04:09:16.791Z,20.47
2017-10-01T04:11:44.206Z,21.73
2017-10-01T04:14:11.607Z,21.70
2017-10-01T04:16:39.006Z,21.70
2017-10-01T04:19:06.453Z,20.90
2017-10-01T04:21:34.071Z,21.30
2017-10-01T04:24:01.474Z,20.87
2017-10-01T04:26:28.884Z,21.60
2017-10-01T04:28:56.282Z,19.80
2017-10-01T04:31:23.682Z,20.67
2017-10-01T04:33:51.086Z,19.27
2017-10-01T04:36:18.499Z,19.83
2017-10-01T04:38:45.915Z,21.27
2017-10-01T04:41:13.327Z,20.27
2017-10-01T04:43:40.753Z,20.83
2017-10-01T04:46:08.147Z,18.93
2017-10-01T04:48:35.562Z,18.80
2017-10-01T04:51:02.959Z,18.67
2017-10-01T04:53:30.365Z,17.90
2017-10-01T04:55:57.772Z,16.70
2017-10-01T04:58:25.163Z,19.30
2017-10-01T05:00:52.559Z,19.10
2017-10-01T05:03:19.975Z,18.60
2017-10-01T05:05:47.380Z,18.43
2017-10-01T05:08:14.796Z,17.13
2017-10-01T05:10:42.223Z,17.33
2017-10-01T05:13:09.619Z,19.00
2017-10-01T05:15:37.032Z,20.20
2017-10-01T05:18:04.462Z,19.23
2017-10-01T05:20:32.126Z,19.37
2017-10-01T05:22:59.539Z,18.33
2017-10-01T05:25:26.959Z,19.40
2017-10-01T05:27:54.363Z,20.27
2017-10-01T05:30:21.751Z,20.20
2017-10-01T05:32:49.168Z,19.33
2017-10-01T05:35:16.569Z,17.30
2017-10-01T05:37:43.960Z,17.30
2017-10-01T05:40:11.379Z,17.27
2017-10-01T05:42:38.780Z,16.33
2017-10-01T05:45:06.179Z,15.83
2017-10-01T05:47:33.599Z,15.70
2017-10-01T05:50:01.004Z,14.77
2017-10-01T05:52:28.475Z,16.10
2017-10-01T05:54:55.892Z,16.13
2017-10-01T05:57:23.304Z,18.37
2017-10-01T05:59:50.715Z,16.10
2017-10-01T06:02:18.133Z,14.83
2017-10-01T06:04:45.543Z,14.80
2017-10-01T06:07:12.942Z,15.10
2017-10-01T06:09:40.359Z,15.43
2017-10-01T06:12:07.760Z,16.10
2017-10-01T06:14:35.165Z,15.67
2017-10-01T06:17:02.575Z,16.20
2017-10-01T06:19:29.976Z,14.70
2017-10-01T06:21:57.386Z,15.33
2017-10-01T06:24:24.804Z,14.77
2017-10-01T06:26:52.209Z,14.80
2017-10-01T06:29:19.620Z,14.00
2017-10-01T06:31:47.039Z,13.10
2017-10-01T06:34:14.447Z,13.80
2017-10-01T06:36:41.854Z,14.93
2017-10-01T06:39:09.280Z,13.03
2017-10-01T06:41:36.684Z,15.03
2017-10-01T06:44:04.084Z,13.40
2017-10-01T06:46:31.506Z,13.53
2017-10-01T06:48:58.908Z,13.90
2017-10-01T06:51:26.315Z,14.40
2017-10-01T06:53:53.749Z,13.40
2017-10-01T06:56:21.143Z,13.60
2017-10-01T06:58:48.543Z,14.33
2017-10-01T07:01:15.960Z,14.13
2017-10-01T07:03:43.356Z,12.73
2017-10-01T07:06:10.763Z,14.27
2017-10-01T07:08:38.176Z,13.00
2017-10-01T07:11:05.574Z,13.43
2017-10-01T07:13:32.979Z,14.70
2017-10-01T07:16:00.391Z,13.90
2017-10-01T07:18:27.798Z,14.43
2017-10-01T07:20:55.200Z,14.40
2017-10-01T07:23:22.607Z,14.23
2017-10-01T07:25:50.015Z,15.20
2017-10-01T07:28:17.415Z,14.87
2017-10-01T07:30:44.827Z,15.63
2017-10-01T07:33:12.245Z,17.40
2017-10-01T07:35:39.642Z,16.57
2017-10-01T07:38:07.074Z,14.70
2017-10-01T07:40:34.466Z,14.93
2017-10-01T07:43:01.862Z,16.10
2017-10-01T07:45:29.278Z,16.57
2017-10-01T07:47:56.680Z,15.20
2017-10-01T07:50:24.075Z,16.40
2017-10-01T07:52:51.486Z,16.00
2017-10-01T07:55:18.918Z,14.97
2017-10-01T07:57:46.315Z,15.27
2017-10-01T08:00:13.731Z,15.67
2017-10-01T08:02:41.175Z,14.13
2017-10-01T08:05:08.566Z,14.77
2017-10-01T08:07:35.974Z,16.90
2017-10-01T08:10:03.387Z,15.17
2017-10-01T08:12:30.781Z,15.17
2017-10-01T08:14:58.198Z,15.50
2017-10-01T08:17:25.624Z,15.30
2017-10-01T08:19:53.007Z,15.90
2017-10-01T08:22:20.427Z,14.73
2017-10-01T08:24:47.822Z,13.63
2017-10-01T08:27:15.223Z,13.17
2017-10-01T08:29:42.691Z,13.57
2017-10-01T08:32:12.163Z,13.40
2017-10-01T08:34:39.571Z,14.67
2017-10-01T08:37:07.002Z,12.67
2017-10-01T08:39:34.407Z,14.07
2017-10-01T08:42:01.814Z,11.70
2017-10-01T08:44:29.218Z,12.77
2017-10-01T08:46:56.619Z,10.83
2017-10-01T08:49:24.024Z,12.07
2017-10-01T08:51:54.934Z,11.10
2017-10-01T08:54:22.335Z,11.07
2017-10-01T08:56:49.739Z,11.10
2017-10-01T08:59:17.170Z,9.57
2017-10-01T09:01:44.623Z,9.93
2017-10-01T09:04:12.020Z,9.83
2017-10-01T09:06:39.439Z,10.07
2017-10-01T09:09:06.845Z,9.60
2017-10-01T09:11:34.251Z,8.23
2017-10-01T09:14:18.075Z,9.10
2017-10-01T09:16:45.475Z,9.27
2017-10-01T09:19:12.941Z,9.60
2017-10-01T09:21:40.447Z,9.93
2017-10-01T09:24:08.837Z,9.73
2017-10-01T09:26:36.233Z,9.90
2017-10-01T09:29:03.662Z,9.13
2017-10-01T09:31:31.047Z,8.40
2017-10-01T09:34:01.236Z,7.93
2017-10-01T09:36:28.731Z,7.57
2017-10-01T09:38:56.126Z,9.10
2017-10-01T09:41:23.540Z,7.00
2017-10-01T09:43:50.954Z,7.73
2017-10-01T09:46:18.368Z,7.30
2017-10-01T09:48:45.766Z,8.43
2017-10-01T09:51:13.176Z,7.00
2017-10-01T09:53:40.571Z,9.30
2017-10-01T09:56:08.033Z,7.30
2017-10-01T09:58:35.435Z,7.53
2017-10-01T10:01:02.823Z,8.33
2017-10-01T10:03:30.223Z,8.70
2017-10-01T10:05:57.719Z,8.40
2017-10-01T10:08:25.118Z,8.20
2017-10-01T10:10:52.523Z,8.57
2017-10-01T10:13:19.947Z,9.37
2017-10-01T10:15:47.725Z,9.93
2017-10-01T10:18:15.109Z,9.40
2017-10-01T10:20:42.514Z,8.83
2017-10-01T10:23:09.990Z,8.77
2017-10-01T10:25:37.409Z,8.73
2017-10-01T10:28:04.824Z,8.07
2017-10-01T10:30:32.251Z,7.47
2017-10-01T10:32:59.731Z,8.17
2017-10-01T10:35:27.202Z,8.57
2017-10-01T10:37:55.818Z,8.53
2017-10-01T10:40:23.199Z,7.17
2017-10-01T10:42:50.602Z,8.17
2017-10-01T10:45:17.995Z,7.33
2017-10-01T10:47:45.383Z,7.03
2017-10-01T10:50:13.795Z,8.07
2017-10-01T10:52:41.203Z,8.57
2017-10-01T10:55:08.605Z,7.60
2017-10-01T10:57:36.003Z,8.10
2017-10-01T11:00:04.228Z,8.23
2017-10-01T11:02:32.259Z,9.20
2017-10-01T11:05:01.151Z,7.20
2017-10-01T11:07:28.543Z,8.00
2017-10-01T11:09:55.935Z,7.77
2017-10-01T11:12:23.368Z,7.00
2017-10-01T11:14:50.764Z,7.63
2017-10-01T11:17:18.253Z,9.57
2017-10-01T11:19:45.650Z,9.07
2017-10-01T11:22:13.044Z,8.23
2017-10-01T11:24:40.447Z,7.90
2017-10-01T11:27:07.847Z,7.80
2017-10-01T11:29:35.251Z,8.90
2017-10-01T11:32:02.647Z,8.63
2017-10-01T11:34:30.056Z,8.17
2017-10-01T11:36:57.443Z,7.73
2017-10-01T11:39:24.835Z,8.10
2017-10-01T11:41:52.252Z,7.50
2017-10-01T11:44:19.643Z,8.17
2017-10-01T11:46:47.050Z,8.50
2017-10-01T11:49:14.476Z,7.90
2017-10-01T11:51:41.869Z,8.37
2017-10-01T11:54:09.288Z,8.20
2017-10-01T11:56:36.698Z,9.00
2017-10-01T11:59:04.124Z,8.43
2017-10-01T12:01:31.549Z,8.60
2017-10-01T12:03:58.967Z,9.13
2017-10-01T12:06:26.375Z,9.20
2017-10-01T12:08:54.731Z,8.60
2017-10-01T12:11:22.135Z,9.10
2017-10-01T12:13:49.555Z,8.10
2017-10-01T12:16:16.945Z,8.20
2017-10-01T12:18:44.350Z,8.07
2017-10-01T12:21:11.747Z,9.20
2017-10-01T12:23:39.144Z,8.73
2017-10-01T12:26:06.838Z,8.63
2017-10-01T12:28:34.232Z,7.70
2017-10-01T12:31:01.627Z,8.33
2017-10-01T12:33:29.032Z,7.73
2017-10-01T12:35:56.430Z,8.13
2017-10-01T12:38:23.827Z,8.23
2017-10-01T12:40:51.236Z,8.67
2017-10-01T12:43:18.634Z,8.00
2017-10-01T12:45:46.036Z,7.63
2017-10-01T12:48:13.588Z,7.83
2017-10-01T12:50:40.980Z,7.77
2017-10-01T12:53:08.372Z,7.50
2017-10-01T12:55:35.774Z,7.90
2017-10-01T12:58:18.553Z,8.57
2017-10-01T13:00:45.959Z,8.30
2017-10-01T13:03:13.355Z,7.60
2017-10-01T13:05:40.754Z,7.20
2017-10-01T13:08:08.155Z,7.67
2017-10-01T13:10:35.549Z,7.43
2017-10-01T13:13:02.951Z,7.50
2017-10-01T13:15:30.365Z,8.37
2017-10-01T13:17:57.763Z,8.20
2017-10-01T13:20:25.155Z,7.30
2017-10-01T13:22:52.583Z,8.57
2017-10-01T13:25:19.971Z,7.70
2017-10-01T13:27:47.363Z,7.67
2017-10-01T13:30:14.771Z,7.50
2017-10-01T13:32:42.167Z,7.43
2017-10-01T13:35:09.572Z,7.93
2017-10-01T13:37:36.975Z,7.93
2017-10-01T13:40:04.376Z,7.37
2017-10-01T13:42:31.774Z,7.63
2017-10-01T13:44:59.178Z,8.97
2017-10-01T13:47:26.568Z,7.13
2017-10-01T13:49:53.968Z,8.60
2017-10-01T13:52:21.390Z,7.77
2017-10-01T13:54:48.772Z,7.93
2017-10-01T13:57:16.162Z,7.23
2017-10-01T13:59:43.576Z,8.60
2017-10-01T14:02:10.962Z,7.33
2017-10-01T14:04:38.360Z,6.93
2017-10-01T14:07:05.771Z,8.67
2017-10-01T14:09:33.159Z,8.17
2017-10-01T14:12:00.548Z,7.97
2017-10-01T14:14:27.952Z,8.73
2017-10-01T14:16:55.343Z,8.20
2017-10-01T14:19:22.735Z,8.17
2017-10-01T14:21:50.139Z,8.97
2017-10-01T14:24:17.527Z,8.10
2017-10-01T14:26:44.933Z,8.40
2017-10-01T14:29:12.335Z,8.03
2017-10-01T14:31:39.736Z,8.87
2017-10-01T14:34:07.127Z,8.20
2017-10-01T14:36:34.527Z,7.93
2017-10-01T14:39:01.915Z,8.70
2017-10-01T14:41:29.307Z,7.90
2017-10-01T14:43:56.714Z,8.00
2017-10-01T14:46:24.111Z,8.10
2017-10-01T14:48:51.504Z,7.83
2017-10-01T14:51:18.919Z,7.90
2017-10-01T14:53:46.312Z,7.33
2017-10-01T14:56:13.707Z,8.30
2017-10-01T14:58:41.118Z,7.97
2017-10-01T15:01:08.504Z,7.60
2017-10-01T15:03:35.900Z,8.33
2017-10-01T15:06:03.327Z,7.20
2017-10-01T15:08:30.719Z,8.20
2017-10-01T15:10:58.110Z,8.37
2017-10-01T15:13:25.630Z,8.40
2017-10-01T15:15:53.030Z,7.27
2017-10-01T15:18:20.426Z,8.03
2017-10-01T15:20:47.840Z,8.03
2017-10-01T15:23:15.231Z,7.50
2017-10-01T15:25:42.619Z,7.40
2017-10-01T15:28:10.019Z,8.20
2017-10-01T15:30:37.424Z,7.63
2017-10-01T15:33:04.815Z,9.13
2017-10-01T15:35:32.231Z,7.30
2017-10-01T15:37:59.620Z,8.00
2017-10-01T15:40:27.011Z,8.20
2017-10-01T15:42:54.416Z,8.63
2017-10-01T15:45:21.808Z,8.50
2017-10-01T15:47:49.200Z,7.93
2017-10-01T15:50:16.611Z,7.80
2017-10-01T15:52:44.007Z,8.17
2017-10-01T15:55:11.403Z,7.80
2017-10-01T15:57:38.814Z,7.60
2017-10-01T16:00:06.251Z,8.37
2017-10-01T16:02:33.624Z,8.20
2017-10-01T16:05:01.032Z,7.53
2017-10-01T16:07:28.431Z,6.90
2017-10-01T16:09:55.819Z,7.80
2017-10-01T16:12:23.225Z,7.73
2017-10-01T16:14:50.619Z,7.30
2017-10-01T16:17:18.013Z,8.33
2017-10-01T16:19:45.432Z,7.80
2017-10-01T16:22:12.818Z,8.30
2017-10-01T16:24:40.220Z,8.80
2017-10-01T16:27:07.624Z,8.20
2017-10-01T16:29:35.024Z,7.67
2017-10-01T16:32:02.416Z,8.03
2017-10-01T16:34:29.820Z,8.50
2017-10-01T16:36:57.217Z,8.57
2017-10-01T16:39:24.604Z,8.20
2017-10-01T16:41:52.022Z,13.20
2017-10-01T16:44:19.422Z,31.20
2017-10-01T16:46:46.829Z,32.27
2017-10-01T16:49:14.246Z,16.80
2017-10-01T16:51:41.639Z,8.60
2017-10-01T16:54:09.035Z,8.20
2017-10-01T16:56:36.441Z,8.67
2017-10-01T16:59:03.831Z,8.60
2017-10-01T17:01:31.223Z,8.57
2017-10-01T17:03:58.642Z,9.17
2017-10-01T17:06:26.040Z,10.20
2017-10-01T17:08:53.446Z,10.73
2017-10-01T17:11:20.845Z,7.90
2017-10-01T17:13:48.243Z,10.40
2017-10-01T17:16:15.631Z,9.40
2017-10-01T17:18:43.044Z,8.67
2017-10-01T17:21:10.444Z,10.10
2017-10-01T17:23:37.848Z,9.97
2017-10-01T17:26:05.280Z,15.30
2017-10-01T17:28:32.680Z,20.03
2017-10-01T17:31:00.074Z,24.53
2017-10-01T17:33:27.496Z,18.30
2017-10-01T17:35:54.900Z,11.47
2017-10-01T17:38:22.311Z,8.57
2017-10-01T17:40:49.716Z,17.43
2017-10-01T17:43:17.111Z,21.43
2017-10-01T17:45:44.516Z,19.83
2017-10-01T17:48:11.934Z,19.00
2017-10-01T17:50:39.352Z,16.30
2017-10-01T17:53:06.743Z,9.70
2017-10-01T17:55:34.156Z,9.80
2017-10-01T17:58:01.560Z,15.63
2017-10-01T18:00:28.958Z,13.30
2017-10-01T18:02:56.375Z,10.13
2017-10-01T18:05:23.759Z,8.50
2017-10-01T18:07:51.151Z,8.70
2017-10-01T18:10:18.576Z,8.63
2017-10-01T18:12:45.963Z,8.40
2017-10-01T18:15:13.355Z,8.87
2017-10-01T18:17:40.762Z,8.87
2017-10-01T18:20:08.152Z,8.80
2017-10-01T18:22:35.546Z,8.00
2017-10-01T18:25:02.947Z,8.60
2017-10-01T18:27:30.402Z,9.10
2017-10-01T18:29:57.798Z,8.70
2017-10-01T18:32:25.232Z,8.37
2017-10-01T18:34:52.626Z,8.30
2017-10-01T18:37:20.019Z,8.10
2017-10-01T18:39:47.428Z,8.00
2017-10-01T18:42:14.821Z,8.63
2017-10-01T18:44:42.211Z,9.10
2017-10-01T18:47:09.620Z,9.77
2017-10-01T18:49:37.859Z,9.00
2017-10-01T18:52:05.264Z,8.03
2017-10-01T18:54:32.679Z,8.00
2017-10-01T18:57:00.080Z,8.30
2017-10-01T18:59:27.474Z,9.03
2017-10-01T19:01:54.896Z,8.40
2017-10-01T19:04:22.331Z,8.10
2017-10-01T19:06:49.726Z,8.57
2017-10-01T19:09:17.136Z,8.90
2017-10-01T19:11:44.539Z,9.37
2017-10-01T19:14:11.950Z,8.63
2017-10-01T19:16:39.381Z,8.17
2017-10-01T19:19:06.772Z,9.50
2017-10-01T19:21:34.164Z,8.37
2017-10-01T19:24:01.579Z,9.03
2017-10-01T19:26:28.983Z,7.83
2017-10-01T19:28:56.375Z,8.23
2017-10-01T19:31:23.779Z,8.40
2017-10-01T19:33:51.176Z,9.20
2017-10-01T19:36:18.568Z,8.20
2017-10-01T19:38:45.999Z,7.90
2017-10-01T19:41:13.415Z,7.83
2017-10-01T19:43:40.815Z,8.43
2017-10-01T19:46:08.222Z,9.23
2017-10-01T19:48:35.623Z,8.57
2017-10-01T19:51:03.028Z,8.33
2017-10-01T19:53:30.452Z,9.17
2017-10-01T19:55:57.836Z,8.50
2017-10-01T19:58:25.229Z,8.53
2017-10-01T20:00:52.675Z,8.87
2017-10-01T20:03:20.073Z,8.93
2017-10-01T20:05:47.471Z,9.13
2017-10-01T20:08:14.875Z,8.57
2017-10-01T20:10:42.270Z,8.57
2017-10-01T20:13:09.660Z,8.73
2017-10-01T20:15:37.073Z,9.10
2017-10-01T20:18:04.459Z,7.77
2017-10-01T20:20:31.851Z,8.47
2017-10-01T20:22:59.262Z,9.27
2017-10-01T20:25:26.659Z,9.43
2017-10-01T20:27:54.055Z,9.37
2017-10-01T20:30:21.467Z,10.07
2017-10-01T20:32:48.866Z,9.73
2017-10-01T20:35:16.256Z,9.60
2017-10-01T20:37:43.674Z,9.47
2017-10-01T20:40:11.055Z,8.93
2017-10-01T20:42:38.468Z,9.40
2017-10-01T20:45:05.875Z,10.00
2017-10-01T20:47:33.284Z,9.60
2017-10-01T20:50:00.679Z,9.37
2017-10-01T20:52:28.092Z,9.47
2017-10-01T20:54:55.495Z,9.37
2017-10-01T20:57:23.211Z,9.63
2017-10-01T20:59:50.610Z,9.50
2017-10-01T21:02:18.004Z,9.17
2017-10-01T21:04:45.411Z,10.00
2017-10-01T21:07:12.818Z,9.70
2017-10-01T21:09:40.211Z,9.50
2017-10-01T21:12:07.612Z,9.73
2017-10-01T21:14:35.030Z,10.10
2017-10-01T21:17:02.428Z,10.80
2017-10-01T21:19:29.829Z,10.33
2017-10-01T21:21:57.240Z,10.10
2017-10-01T21:24:24.642Z,10.90
2017-10-01T21:26:52.043Z,10.87
2017-10-01T21:29:19.467Z,9.90
2017-10-01T21:31:46.867Z,10.30
2017-10-01T21:34:14.263Z,9.60
2017-10-01T21:36:41.670Z,9.70
2017-10-01T21:39:09.067Z,9.97
2017-10-01T21:41:36.470Z,9.70
2017-10-01T21:44:03.882Z,10.00
2017-10-01T21:46:31.290Z,11.33
2017-10-01T21:48:58.684Z,9.60
2017-10-01T21:51:26.099Z,9.40
2017-10-01T21:53:53.593Z,10.40
2017-10-01T21:56:20.993Z,9.83
2017-10-01T21:58:48.409Z,10.30
2017-10-01T22:01:15.808Z,10.70
2017-10-01T22:03:43.199Z,9.60
2017-10-01T22:06:10.611Z,9.30
2017-10-01T22:08:38.010Z,9.33
2017-10-01T22:11:05.411Z,10.43
2017-10-01T22:13:32.847Z,10.30
2017-10-01T22:16:00.247Z,10.30
2017-10-01T22:18:27.643Z,9.73
2017-10-01T22:20:55.062Z,10.33
2017-10-01T22:23:22.451Z,10.03
2017-10-01T22:25:49.862Z,10.77
2017-10-01T22:28:17.279Z,10.43
2017-10-01T22:30:44.679Z,10.70
2017-10-01T22:33:12.074Z,10.37
2017-10-01T22:35:39.496Z,11.10
2017-10-01T22:38:06.887Z,9.73
2017-10-01T22:40:34.292Z,11.00
2017-10-01T22:43:01.699Z,10.10
2017-10-01T22:45:29.103Z,10.57
2017-10-01T22:47:56.499Z,11.00
2017-10-01T22:50:23.908Z,10.60
2017-10-01T22:52:51.310Z,10.67
2017-10-01T22:55:18.725Z,11.37
2017-10-01T22:57:46.134Z,11.47
2017-10-01T23:00:13.531Z,11.50
2017-10-01T23:02:40.944Z,11.40
2017-10-01T23:05:08.354Z,11.67
2017-10-01T23:07:35.766Z,11.47
2017-10-01T23:10:03.178Z,11.30
2017-10-01T23:12:30.592Z,11.90
2017-10-01T23:14:57.987Z,10.90
2017-10-01T23:17:25.391Z,12.07
2017-10-01T23:19:52.809Z,10.63
2017-10-01T23:22:20.215Z,11.27
2017-10-01T23:24:47.611Z,10.90
2017-10-01T23:27:15.022Z,10.60
2017-10-01T23:29:42.415Z,11.23
2017-10-01T23:32:09.818Z,11.50
2017-10-01T23:34:37.239Z,10.93
2017-10-01T23:37:04.634Z,10.67
2017-10-01T23:39:32.035Z,10.97
2017-10-01T23:41:59.458Z,11.00
2017-10-01T23:44:26.867Z,11.30
2017-10-01T23:46:54.267Z,11.63
2017-10-01T23:49:21.684Z,10.63
2017-10-01T23:51:49.084Z,11.10
2017-10-01T23:54:16.486Z,11.30
2017-10-01T23:56:43.898Z,10.70
2017-10-01T23:59:11.301Z,10.40
